University of Wyoming, Wyoming
Current Conditions -  °F | °C
As of 1:53 PM on Sunday 21 Dec 2014 (Local Time) from KLAR Reporting Station
Overcast Overcast  
Wind Chill: 24°   Ceiling: 9000
Heat Index: 37°   Visibility: 10mi
Dew Point: 26°   Wind: 31mph
Humidity: 65%   Direction: 270°W
Pressure: 29.54"   Gusts: 39mph
Location:  41.4218°N, 105.605°W
Report Text: KLAR 212053Z AUTO 27027G34KT 10SM SCT080 BKN090 OVC110 03/M03 A2954 RMK AO2 PK WND 27034/2046 SLP982 T00281033 56028
Loading
Personal Weather Stations






























Interactive Weather Map New forecast layout! Learn more

10-Day Weather Forecast

Advertisements
Track Severe Weather on mobile